• Join FlightAware (Why Join?)
  • Login
  • US Flag 
02:25PM EDT


 

Airport Tracker/Info


-or-


 

Live Flight TrackerFlight Track Log ✈ SWA385 ✈ 08-Jul-2013 ✈ KSMF - KSNA

Flight Track Log - Related Links

Times and Time Zones

All times are in EDT time to prevent confusion due to time zone crossing. See the SWA385 flight status page for this flight to view local times or setup timezone preferences in your user account.

Time Position Orientation Groundspeed Altitude Reporting Facility
EDT Latitude Longitude Course Direction KTS MPH feet Rate Location/Type
12:07AM 38.6500 -121.5667 157° South 197 227 3,100  Level Northern Cal TRACON
12:10AM 38.5675 -121.3819 120° Southeast 278 320 11,400 3,480 Climbing Oakland Center
12:11AM 38.5186 -121.2797 121° Southeast 328 377 15,400 3,720 Climbing Oakland Center
12:12AM 38.4664 -121.1722 122° Southeast 355 409 19,000 3,540 Climbing Oakland Center
12:13AM 38.4072 -121.0481 121° Southeast 378 435 22,600 3,240 Climbing Oakland Center
12:14AM 38.3500 -120.9275 121° Southeast 396 456 25,600 2,640 Climbing Oakland Center
12:15AM 38.2894 -120.8014 121° Southeast 415 478 28,000 1,620 Climbing Oakland Center
12:16AM 38.2256 -120.6683 121° Southeast 438 504 29,000 480 Climbing Oakland Center
12:17AM 38.1633 -120.5350 121° Southeast 439 505 29,000 780 Level Oakland Center
12:18AM 38.0831 -120.4214 132° Southeast 436 502 30,600 960 Climbing Oakland Center
12:19AM 37.9628 -120.3169 146° Southeast 436 502 31,000 180 Climbing Oakland Center
12:20AM 37.8625 -120.2314 146° Southeast 435 501 31,000  Level Oakland Center
12:21AM 37.7622 -120.1467 146° Southeast 433 498 31,000  Level Oakland Center
12:22AM 37.6608 -120.0617 146° Southeast 436 502 31,000  Level Oakland Center
12:23AM 37.5617 -119.9758 146° Southeast 433 498 31,000  Level Oakland Center
12:24AM 37.4603 -119.8903 146° Southeast 437 503 31,000  Level Oakland Center
12:25AM 37.3569 -119.8064 147° Southeast 440 506 31,000 360 Level Oakland Center
12:26AM 37.2625 -119.7272 146° Southeast 436 502 31,800 960 Climbing Oakland Center
12:27AM 37.1603 -119.6406 146° Southeast 442 509 33,000 1,320 Climbing Oakland Center
12:28AM 37.0236 -119.5958 165° South 431 496 34,600 960 Climbing Oakland Center
12:29AM 36.9092 -119.5969 180° South 416 479 35,000 180 Climbing Oakland Center
12:30AM 36.7956 -119.6003 181° South 411 473 35,000  Level Oakland Center
12:31AM 36.6864 -119.6019 181° South 395 455 35,000  Level Oakland Center
12:32AM 36.5775 -119.6042 181° South 391 450 35,000  Level Oakland Center
12:33AM 36.4689 -119.6058 181° South 389 448 35,000  Level Oakland Center
12:34AM 36.3608 -119.6081 181° South 388 447 35,000  Level Oakland Center
12:35AM 36.2511 -119.6100 181° South 391 450 35,000  Level Oakland Center
12:36AM 36.1408 -119.6111 180° South 396 456 35,000  Level Oakland Center
12:37AM 36.0314 -119.6133 181° South 394 453 35,000  Level Oakland Center
12:38AM 35.9211 -119.6158 181° South 394 453 35,000  Level Oakland Center
12:39AM 35.8117 -119.6206 182° South 393 452 35,000  Level Oakland Center
12:41AM 35.6783 -119.6256 182° South 397 457 35,000  Level Oakland Center
12:42AM 35.5689 -119.6286 181° South 394 453 35,000  Level Oakland Center
12:43AM 35.4583 -119.6328 182° South 395 455 35,000  Level Oakland Center
12:44AM 35.3481 -119.6361 181° South 395 455 35,000  Level Oakland Center
12:45AM 35.2456 -119.5778 155° Southeast 412 474 35,000  Level Oakland Center
12:45AM 35.2103 -119.5472 145° Southeast 409 471 35,000  Level Los Angeles Center
12:46AM 35.0944 -119.4561 147° Southeast 411 473 35,000  Level Los Angeles Center
12:47AM 34.9983 -119.3814 148° Southeast 408 470 35,000  Level Los Angeles Center
12:48AM 34.9042 -119.3069 147° Southeast 406 467 35,000  Level Los Angeles Center
12:49AM 34.8106 -119.2331 147° Southeast 402 463 35,000  Level Los Angeles Center
12:50AM 34.7153 -119.1586 147° Southeast 405 466 35,000 -960 Level Los Angeles Center
12:51AM 34.6094 -119.0778 148° Southeast 398 458 33,100 -2,400 Descending Los Angeles Center
12:52AM 34.5150 -119.0058 148° Southeast 399 459 30,100 -2,880 Descending Los Angeles Center
12:53AM 34.4208 -118.9317 147° Southeast 404 465 27,300 -2,640 Descending Los Angeles Center
12:54AM 34.3231 -118.8711 153° Southeast 396 456 24,700 -2,520 Descending Los Angeles Center
12:55AM 34.2208 -118.8317 162° South 384 442 22,200 -2,460 Descending Los Angeles Center
12:56AM 34.1222 -118.7956 163° South 373 429 19,700 -2,640 Descending Los Angeles Center
12:57AM 34.0081 -118.7531 163° South 359 413 16,800 -2,640 Descending Los Angeles Center
12:59AM 33.9183 -118.7206 163° South 341 392 14,400 -1,800 Descending Los Angeles Center
01:00AM 33.8303 -118.6892 164° South 336 387 13,200 -1,200 Descending Los Angeles Center
01:01AM 33.7586 -118.6625 163° South 338 389 12,000 -1,380 Descending Los Angeles Center
01:02AM 33.6597 -118.6281 164° South 313 360 10,400 -1,320 Descending Los Angeles Center
01:03AM 33.5869 -118.5886 156° South 301 346 9,400 -1,080 Descending Los Angeles Center
01:04AM 33.5744 -118.4736 97° East 295 339 8,200 -1,080 Descending Los Angeles Center
01:05AM 33.5694 -118.3772 94° East 295 339 7,200 -1,020 Descending Los Angeles Center
01:06AM 33.5853 -118.2839 78° East 296 341 6,200 -1,020 Descending Los Angeles Center
01:07AM 33.6128 -118.1992 69° East 285 328 5,200 -660 Descending Los Angeles Center
01:08AM 33.6333 -118.1167 73° East 244 281 5,000 -120 Descending Southern California TRACON
01:09AM 33.6667 -118.0500 59° Northeast 241 277 5,000 -600 Level Southern California TRACON
01:10AM 33.6833 -117.9667 76° East 242 278 3,900 -1,080 Descending Southern California TRACON
01:11AM 33.7333 -117.9333 29° Northeast 231 266 3,000 -600 Descending Southern California TRACON
01:12AM 33.7500 -117.8667 73° East 189 217 2,800 -840 Descending Southern California TRACON
01:13AM 33.7333 -117.8333 121° Southeast 159 183 1,400 -1,140 Descending Southern California TRACON
01:14AM 33.7000 -117.8500 203° Southwest 133 153 600 -840 Descending Southern California TRACON
01:17AM 33.6757 -117.8682 North  Level Estimated